Time;durP1;ratioP1;P1;durP2;ratioP2;P2;SDS_P1;SDS_P2;PMS_P1;PMS_P2;Temp;Humidity;BMP_temperature;BMP_pressure;BME280_temperature;BME280_humidity;BME280_pressure;Samples;Min_cycle;Max_cycle;Signal;HPM_P1;HPM_P2
2022/05/28 00:00:22;;;;;;;;;;;17.00;99.90;;;;;;4976055;28;19918;-83
2022/05/28 00:02:48;;;;;;;;;;;17.00;99.90;;;;;;4958695;28;19965;-83
2022/05/28 00:05:14;;;;;;;;;;;17.00;99.90;;;;;;4976030;28;19910;-82
2022/05/28 00:07:40;;;;;;;;;;;17.00;99.90;;;;;;4976102;28;19910;-82
2022/05/28 00:10:06;;;;;;;;;;;17.00;99.90;;;;;;4975998;28;19937;-83
2022/05/28 00:12:31;;;;;;;;;;;17.00;99.90;;;;;;4975933;28;20370;-82
2022/05/28 00:14:57;;;;;;;;;;;17.00;99.90;;;;;;4975805;28;19918;-83
2022/05/28 00:17:23;;;;;;;;;;;17.00;99.90;;;;;;4976175;28;19910;-82
2022/05/28 00:19:49;;;;;;;;;;;16.90;99.90;;;;;;4975989;28;19910;-83
2022/05/28 00:22:14;;;;;;;;;;;16.80;99.90;;;;;;4975931;28;20326;-83
2022/05/28 00:24:40;;;;;;;;;;;16.80;99.90;;;;;;4975783;28;20357;-83
2022/05/28 00:27:06;;;;;;;;;;;16.80;99.90;;;;;;4974341;28;19918;-82
2022/05/28 00:29:31;;;;;;;;;;;16.80;99.90;;;;;;4975577;28;19910;-82
2022/05/28 00:31:57;;;;;;;;;;;16.80;99.90;;;;;;4975644;28;20334;-83
2022/05/28 00:34:22;;;;;;;;;;;16.80;99.90;;;;;;4975665;28;20290;-83
2022/05/28 00:36:48;;;;;;;;;;;16.80;99.90;;;;;;4976007;28;19910;-83
2022/05/28 00:39:13;;;;;;;;;;;16.80;99.90;;;;;;4974125;28;19910;-83
2022/05/28 00:41:39;;;;;;;;;;;16.80;99.90;;;;;;4958081;28;19922;-82
2022/05/28 00:44:05;;;;;;;;;;;16.80;99.90;;;;;;4975450;28;20384;-83
2022/05/28 00:46:31;;;;;;;;;;;16.70;99.90;;;;;;4975274;28;19917;-82
2022/05/28 00:48:58;;;;;;;;;;;16.70;99.90;;;;;;4975397;28;19910;-83
2022/05/28 00:51:29;;;;;;;;;;;16.70;99.90;;;;;;4975272;28;19911;-82
2022/05/28 00:53:56;;;;;;;;;;;16.60;99.90;;;;;;4975554;28;19918;-83
2022/05/28 00:56:22;;;;;;;;;;;16.60;99.90;;;;;;4975373;28;20000;-82
2022/05/28 00:58:48;;;;;;;;;;;16.60;99.90;;;;;;4975087;28;19910;-82
2022/05/28 01:01:15;;;;;;;;;;;16.50;99.90;;;;;;4975106;28;19938;-83
2022/05/28 01:04:00;;;;;;;;;;;16.50;99.90;;;;;;4975666;28;19954;-83
2022/05/28 01:06:26;;;;;;;;;;;16.50;99.90;;;;;;4973770;28;19916;-83
2022/05/28 01:09:10;;;;;;;;;;;16.50;99.90;;;;;;4974919;28;20016;-83
2022/05/28 01:11:51;;;;;;;;;;;16.40;99.90;;;;;;4974907;28;19946;-83
2022/05/28 01:14:33;;;;;;;;;;;16.40;99.90;;;;;;4974879;28;19918;-82
2022/05/28 01:17:03;;;;;;;;;;;16.40;99.90;;;;;;4974974;28;19925;-83
2022/05/28 01:19:31;;;;;;;;;;;16.30;99.90;;;;;;4975266;28;19910;-83
2022/05/28 01:22:01;;;;;;;;;;;16.30;99.90;;;;;;4974874;28;19917;-83
2022/05/28 01:24:35;;;;;;;;;;;16.30;99.90;;;;;;4974903;28;19952;-82
2022/05/28 01:27:21;;;;;;;;;;;16.30;99.90;;;;;;4973430;28;20293;-83
2022/05/28 01:29:59;;;;;;;;;;;16.30;99.90;;;;;;4974067;28;19914;-83
2022/05/28 01:32:25;;;;;;;;;;;16.40;99.90;;;;;;4973548;28;19910;-83
2022/05/28 01:34:52;;;;;;;;;;;16.30;99.90;;;;;;4973467;28;19918;-83
2022/05/28 01:37:21;;;;;;;;;;;16.30;99.90;;;;;;4974832;28;20433;-83
2022/05/28 01:39:48;;;;;;;;;;;16.30;99.90;;;;;;4974736;28;19914;-82
2022/05/28 01:42:15;;;;;;;;;;;16.30;99.90;;;;;;4974727;28;19921;-83
2022/05/28 01:44:43;;;;;;;;;;;16.30;99.90;;;;;;4974576;28;19914;-83
2022/05/28 01:47:10;;;;;;;;;;;16.30;99.90;;;;;;4974459;28;19911;-82
2022/05/28 01:49:36;;;;;;;;;;;16.20;99.90;;;;;;4973293;28;19910;-83
2022/05/28 01:52:02;;;;;;;;;;;16.20;99.90;;;;;;4974684;28;19921;-83
2022/05/28 01:54:34;;;;;;;;;;;16.20;99.90;;;;;;4974508;28;19919;-83
2022/05/28 01:56:59;;;;;;;;;;;16.20;99.90;;;;;;4975049;28;19911;-82
2022/05/28 01:59:27;;;;;;;;;;;16.20;99.90;;;;;;4974595;28;19910;-82
2022/05/28 02:01:54;;;;;;;;;;;16.10;99.90;;;;;;4974680;28;20389;-83
2022/05/28 02:04:19;;;;;;;;;;;16.00;99.90;;;;;;4974680;28;19933;-83
2022/05/28 02:06:45;;;;;;;;;;;16.10;99.90;;;;;;4974449;28;20359;-83
2022/05/28 02:09:13;;;;;;;;;;;16.00;99.90;;;;;;4972931;28;19910;-83
2022/05/28 02:11:51;;;;;;;;;;;16.00;99.90;;;;;;4974585;28;20417;-82
2022/05/28 02:14:31;;;;;;;;;;;16.00;99.90;;;;;;4974711;28;19914;-83
2022/05/28 02:17:19;;;;;;;;;;;15.90;99.90;;;;;;4974684;28;19917;-82
2022/05/28 02:20:14;;;;;;;;;;;15.90;99.90;;;;;;4974428;28;19910;-85
2022/05/28 02:22:50;;;;;;;;;;;15.90;99.90;;;;;;4948399;28;20414;-82
2022/05/28 02:25:21;;;;;;;;;;;15.90;99.90;;;;;;4977867;28;20274;-83
2022/05/28 02:27:47;;;;;;;;;;;15.80;99.90;;;;;;4976572;28;20000;-83
2022/05/28 02:30:13;;;;;;;;;;;15.80;99.90;;;;;;4977982;28;19917;-83
2022/05/28 02:32:39;;;;;;;;;;;15.80;99.90;;;;;;4978326;28;19910;-83
2022/05/28 02:35:05;;;;;;;;;;;15.80;99.90;;;;;;4977839;28;19922;-82
2022/05/28 02:37:30;;;;;;;;;;;15.70;99.90;;;;;;4977911;28;19915;-82
2022/05/28 02:39:57;;;;;;;;;;;15.70;99.90;;;;;;4977459;28;19922;-82
2022/05/28 02:42:23;;;;;;;;;;;15.70;99.90;;;;;;4977750;28;19949;-83
2022/05/28 02:44:49;;;;;;;;;;;15.60;99.90;;;;;;4977584;28;19953;-82
2022/05/28 02:47:14;;;;;;;;;;;15.60;99.90;;;;;;4977495;28;20412;-82
2022/05/28 02:49:40;;;;;;;;;;;15.50;99.90;;;;;;4977972;28;19910;-83
2022/05/28 02:52:06;;;;;;;;;;;15.60;99.90;;;;;;4977489;28;19910;-82
2022/05/28 02:54:33;;;;;;;;;;;15.60;99.90;;;;;;4977498;28;19981;-83
2022/05/28 02:56:58;;;;;;;;;;;15.60;99.90;;;;;;4977467;28;20271;-83
2022/05/28 02:59:24;;;;;;;;;;;15.60;99.90;;;;;;4977613;28;19918;-83
2022/05/28 03:01:50;;;;;;;;;;;15.60;99.90;;;;;;4977314;28;20059;-83
2022/05/28 03:04:15;;;;;;;;;;;15.60;99.90;;;;;;4977306;28;19911;-83
2022/05/28 03:06:41;;;;;;;;;;;15.60;99.90;;;;;;4977443;28;20031;-82
2022/05/28 03:09:07;;;;;;;;;;;15.50;99.90;;;;;;4975716;28;20283;-83
2022/05/28 03:11:33;;;;;;;;;;;15.40;99.90;;;;;;4977190;28;19917;-82
2022/05/28 03:13:58;;;;;;;;;;;15.40;99.90;;;;;;4977139;28;19962;-84
2022/05/28 03:16:24;;;;;;;;;;;15.30;99.90;;;;;;4959758;28;19918;-83
2022/05/28 03:18:49;;;;;;;;;;;15.40;99.90;;;;;;4977216;28;19914;-83
2022/05/28 03:21:15;;;;;;;;;;;15.40;99.90;;;;;;4977032;28;20251;-83
2022/05/28 03:23:41;;;;;;;;;;;15.20;99.90;;;;;;4977042;28;20322;-82
2022/05/28 03:26:11;;;;;;;;;;;15.30;99.90;;;;;;4976896;28;19910;-83
2022/05/28 03:28:36;;;;;;;;;;;15.30;99.90;;;;;;4976749;28;20317;-82
2022/05/28 03:31:02;;;;;;;;;;;15.30;99.90;;;;;;4976871;28;20000;-83
2022/05/28 03:33:27;;;;;;;;;;;15.20;99.90;;;;;;4976632;28;19987;-83
2022/05/28 03:35:53;;;;;;;;;;;15.20;99.90;;;;;;4976080;28;19910;-83
2022/05/28 03:38:18;;;;;;;;;;;15.20;99.90;;;;;;4977028;28;19910;-83
2022/05/28 03:40:44;;;;;;;;;;;15.20;99.90;;;;;;4976475;28;19922;-83
2022/05/28 03:43:09;;;;;;;;;;;15.20;99.90;;;;;;4959148;28;19910;-83
2022/05/28 03:45:35;;;;;;;;;;;15.20;99.90;;;;;;4976638;28;19917;-83
2022/05/28 03:48:02;;;;;;;;;;;15.10;99.90;;;;;;4976787;28;19910;-83
2022/05/28 03:50:27;;;;;;;;;;;15.10;99.90;;;;;;4976293;28;20009;-83
2022/05/28 03:52:53;;;;;;;;;;;15.20;99.90;;;;;;4975267;28;20337;-83
2022/05/28 03:55:18;;;;;;;;;;;15.10;99.90;;;;;;4976440;28;20374;-82
2022/05/28 03:57:46;;;;;;;;;;;15.10;99.90;;;;;;4976360;28;19960;-82
2022/05/28 04:00:12;;;;;;;;;;;15.10;99.90;;;;;;4976459;28;20390;-83
2022/05/28 04:02:37;;;;;;;;;;;15.10;99.90;;;;;;4976315;28;20414;-83
2022/05/28 04:05:04;;;;;;;;;;;15.10;99.90;;;;;;4976318;28;20010;-83
2022/05/28 04:07:29;;;;;;;;;;;15.10;99.90;;;;;;4958510;28;19981;-83
2022/05/28 04:09:55;;;;;;;;;;;15.10;99.90;;;;;;4976227;28;20370;-83
2022/05/28 04:12:20;;;;;;;;;;;15.10;99.90;;;;;;4976094;28;19914;-83
2022/05/28 04:14:46;;;;;;;;;;;15.00;99.90;;;;;;4976189;28;20314;-83
2022/05/28 04:17:12;;;;;;;;;;;15.00;99.90;;;;;;4976110;28;19957;-83
2022/05/28 04:19:37;;;;;;;;;;;15.00;99.90;;;;;;4975879;28;19910;-83
2022/05/28 04:22:03;;;;;;;;;;;14.90;99.90;;;;;;4976125;28;19917;-83
2022/05/28 04:24:29;;;;;;;;;;;14.90;99.90;;;;;;4975919;28;19917;-83
2022/05/28 04:26:55;;;;;;;;;;;14.90;99.90;;;;;;4975746;28;19910;-83
2022/05/28 04:29:20;;;;;;;;;;;14.90;99.90;;;;;;4975614;28;20005;-83
2022/05/28 04:31:46;;;;;;;;;;;14.80;99.90;;;;;;4974312;28;20370;-83
2022/05/28 04:34:11;;;;;;;;;;;14.80;99.90;;;;;;4975909;28;19922;-82
2022/05/28 04:36:37;;;;;;;;;;;14.90;99.90;;;;;;4975659;28;19910;-82
2022/05/28 04:39:02;;;;;;;;;;;14.90;99.90;;;;;;4975832;28;19910;-83
2022/05/28 04:41:28;;;;;;;;;;;14.90;99.90;;;;;;4975344;28;19922;-82
2022/05/28 04:43:53;;;;;;;;;;;14.90;99.90;;;;;;4975437;28;19910;-84
2022/05/28 04:46:19;;;;;;;;;;;14.80;99.90;;;;;;4975264;28;19997;-82
2022/05/28 04:48:44;;;;;;;;;;;14.80;99.90;;;;;;4974943;28;19961;-82
2022/05/28 04:51:10;;;;;;;;;;;14.90;99.90;;;;;;4975352;28;19910;-82
2022/05/28 04:53:35;;;;;;;;;;;14.90;99.90;;;;;;4975646;28;19910;-82
2022/05/28 04:56:01;;;;;;;;;;;14.90;99.90;;;;;;4975379;28;19914;-83
2022/05/28 04:58:29;;;;;;;;;;;14.90;99.90;;;;;;4975366;28;19910;-82
2022/05/28 05:00:55;;;;;;;;;;;14.90;99.90;;;;;;4957811;28;19910;-82
2022/05/28 05:03:21;;;;;;;;;;;14.90;99.90;;;;;;4975261;28;19933;-82
2022/05/28 05:05:46;;;;;;;;;;;14.90;99.90;;;;;;4975270;28;20005;-82
2022/05/28 05:08:12;;;;;;;;;;;14.90;99.90;;;;;;4975388;28;19918;-83
2022/05/28 05:10:38;;;;;;;;;;;14.90;99.90;;;;;;4974865;28;19945;-82
2022/05/28 05:13:05;;;;;;;;;;;14.90;99.90;;;;;;4975264;28;20378;-82
2022/05/28 05:15:31;;;;;;;;;;;15.00;99.90;;;;;;4974829;28;20019;-83
2022/05/28 05:17:56;;;;;;;;;;;15.00;99.90;;;;;;4974992;28;19910;-82
2022/05/28 05:20:22;;;;;;;;;;;14.90;99.90;;;;;;4973873;28;19917;-83
2022/05/28 05:22:47;;;;;;;;;;;14.90;99.90;;;;;;4975376;28;19942;-83
2022/05/28 05:25:13;;;;;;;;;;;15.00;99.90;;;;;;4974882;28;19950;-83
2022/05/28 05:27:39;;;;;;;;;;;15.00;99.90;;;;;;4974775;28;20314;-83
2022/05/28 05:30:05;;;;;;;;;;;15.00;99.90;;;;;;4975038;28;19910;-82
2022/05/28 05:32:31;;;;;;;;;;;15.00;99.90;;;;;;4974680;28;19914;-83
2022/05/28 05:34:56;;;;;;;;;;;15.00;99.90;;;;;;4975244;28;19925;-83
2022/05/28 05:37:22;;;;;;;;;;;15.10;99.90;;;;;;4975004;28;20333;-83
2022/05/28 05:39:47;;;;;;;;;;;15.10;99.90;;;;;;4974591;28;19960;-83
2022/05/28 05:42:13;;;;;;;;;;;15.20;99.90;;;;;;4973578;28;19981;-83
2022/05/28 05:44:39;;;;;;;;;;;15.20;99.90;;;;;;4974827;28;19985;-83
2022/05/28 05:47:05;;;;;;;;;;;15.20;99.90;;;;;;4989473;28;20414;-82
2022/05/28 05:49:31;;;;;;;;;;;15.30;99.90;;;;;;4974825;28;19914;-83
2022/05/28 05:51:57;;;;;;;;;;;15.30;99.90;;;;;;4974567;28;20013;-82
2022/05/28 05:54:25;;;;;;;;;;;15.30;99.90;;;;;;4974543;28;19929;-83
2022/05/28 05:56:54;;;;;;;;;;;15.40;99.90;;;;;;4975070;28;20310;-82
2022/05/28 05:59:20;;;;;;;;;;;15.40;99.90;;;;;;4976458;28;20294;-83
2022/05/28 06:01:45;;;;;;;;;;;15.40;99.90;;;;;;4978767;28;20374;-82
2022/05/28 06:04:11;;;;;;;;;;;15.40;99.90;;;;;;4978340;28;19916;-83
2022/05/28 06:06:37;;;;;;;;;;;15.50;99.90;;;;;;4978599;28;19917;-82
2022/05/28 06:09:03;;;;;;;;;;;15.60;99.90;;;;;;4978561;28;19949;-82
2022/05/28 06:11:28;;;;;;;;;;;15.60;99.90;;;;;;4960791;28;19911;-82
2022/05/28 06:13:54;;;;;;;;;;;15.70;99.90;;;;;;4978036;28;19918;-82
2022/05/28 06:16:19;;;;;;;;;;;15.70;99.90;;;;;;4978214;28;19945;-82
2022/05/28 06:18:45;;;;;;;;;;;15.70;99.90;;;;;;4978283;28;19918;-82
2022/05/28 06:21:10;;;;;;;;;;;15.90;99.90;;;;;;4978252;28;19918;-83
2022/05/28 06:23:36;;;;;;;;;;;15.90;99.90;;;;;;4978597;28;19910;-82
2022/05/28 06:26:05;;;;;;;;;;;16.00;99.90;;;;;;4978052;28;19910;-83
2022/05/28 06:28:31;;;;;;;;;;;16.00;99.90;;;;;;4978558;28;20355;-82
2022/05/28 06:31:01;;;;;;;;;;;16.00;99.90;;;;;;4977784;28;19911;-83
2022/05/28 06:33:26;;;;;;;;;;;16.00;99.90;;;;;;4977874;28;19910;-83
2022/05/28 06:35:56;;;;;;;;;;;16.00;99.90;;;;;;4978033;28;20009;-82
2022/05/28 06:38:21;;;;;;;;;;;16.10;99.90;;;;;;4977772;28;19922;-83
2022/05/28 06:40:47;;;;;;;;;;;16.20;99.90;;;;;;4977607;28;20293;-83
2022/05/28 06:43:12;;;;;;;;;;;16.30;99.90;;;;;;4977838;28;20374;-83
2022/05/28 06:45:38;;;;;;;;;;;16.40;99.90;;;;;;4977698;28;19910;-82
2022/05/28 06:48:04;;;;;;;;;;;16.40;99.90;;;;;;4977623;28;20009;-82
2022/05/28 06:53:13;;;;;;;;;;;16.50;99.90;;;;;;4977435;28;19965;-82
2022/05/28 06:55:39;;;;;;;;;;;16.60;99.90;;;;;;4977283;28;19918;-83
2022/05/28 06:58:06;;;;;;;;;;;16.70;99.90;;;;;;4976283;28;20353;-82
2022/05/28 07:00:32;;;;;;;;;;;16.70;99.90;;;;;;4977533;28;20329;-82
2022/05/28 07:02:58;;;;;;;;;;;16.70;99.90;;;;;;4977424;28;19960;-82
2022/05/28 07:05:24;;;;;;;;;;;16.80;99.90;;;;;;4977399;28;19949;-82
2022/05/28 07:07:49;;;;;;;;;;;16.90;99.90;;;;;;4959894;28;20322;-82
2022/05/28 07:10:15;;;;;;;;;;;16.90;99.90;;;;;;4976101;28;19961;-82
2022/05/28 07:12:40;;;;;;;;;;;17.00;99.90;;;;;;4977029;28;19918;-83
2022/05/28 07:15:06;;;;;;;;;;;17.10;99.90;;;;;;4976929;28;19918;-82
2022/05/28 07:17:32;;;;;;;;;;;17.20;99.90;;;;;;4976948;28;19911;-82
2022/05/28 07:19:57;;;;;;;;;;;17.30;99.90;;;;;;4977009;28;19910;-82
2022/05/28 07:22:23;;;;;;;;;;;17.30;99.90;;;;;;4976925;28;19910;-83
2022/05/28 07:24:48;;;;;;;;;;;17.30;99.90;;;;;;4976989;28;19916;-82
2022/05/28 07:27:14;;;;;;;;;;;17.40;99.90;;;;;;4977532;28;19910;-85
2022/05/28 07:29:40;;;;;;;;;;;17.50;99.90;;;;;;4977042;28;19910;-86
2022/05/28 07:32:06;;;;;;;;;;;17.50;99.90;;;;;;4976769;28;19910;-85
2022/05/28 07:34:32;;;;;;;;;;;17.70;99.90;;;;;;4976450;28;19965;-86
2022/05/28 07:36:57;;;;;;;;;;;17.70;99.90;;;;;;4976716;28;19911;-85
2022/05/28 07:39:23;;;;;;;;;;;17.80;99.90;;;;;;4976674;28;19910;-86
2022/05/28 07:41:48;;;;;;;;;;;17.90;99.90;;;;;;4976869;28;19925;-86
2022/05/28 07:44:14;;;;;;;;;;;18.10;99.90;;;;;;4976834;28;19910;-85
2022/05/28 07:46:40;;;;;;;;;;;18.10;99.90;;;;;;4976621;28;19911;-85
2022/05/28 07:49:06;;;;;;;;;;;18.10;99.90;;;;;;4976729;28;20005;-85
2022/05/28 07:51:33;;;;;;;;;;;18.20;99.90;;;;;;4976603;28;19911;-85
2022/05/28 07:53:58;;;;;;;;;;;18.30;99.90;;;;;;4976218;28;19914;-86
2022/05/28 07:56:24;;;;;;;;;;;18.40;99.90;;;;;;4976118;28;20001;-85
2022/05/28 07:58:50;;;;;;;;;;;18.50;99.90;;;;;;4976638;28;20080;-85
2022/05/28 08:01:20;;;;;;;;;;;18.60;99.90;;;;;;4976275;28;19997;-85
2022/05/28 08:03:46;;;;;;;;;;;18.70;99.90;;;;;;4976297;28;19910;-85
2022/05/28 08:06:12;;;;;;;;;;;18.80;99.90;;;;;;4976290;28;19922;-85
2022/05/28 08:08:37;;;;;;;;;;;18.90;99.90;;;;;;4974866;28;19910;-85
2022/05/28 08:11:03;;;;;;;;;;;18.90;99.90;;;;;;4975866;28;19918;-85
2022/05/28 08:13:28;;;;;;;;;;;19.00;99.90;;;;;;4975840;28;19910;-86
2022/05/28 08:15:55;;;;;;;;;;;19.10;99.90;;;;;;4975928;28;20008;-85
2022/05/28 08:18:23;;;;;;;;;;;19.30;99.90;;;;;;4974654;28;20330;-85
2022/05/28 08:23:33;;;;;;;;;;;19.40;99.90;;;;;;4976133;28;19916;-85
2022/05/28 08:25:59;;;;;;;;;;;19.50;99.90;;;;;;4975855;28;19910;-85
2022/05/28 08:28:24;;;;;;;;;;;19.60;99.90;;;;;;4958428;28;20005;-85
2022/05/28 08:30:50;;;;;;;;;;;19.70;99.90;;;;;;4974443;28;19910;-85
2022/05/28 08:33:16;;;;;;;;;;;19.70;99.90;;;;;;4975656;28;19917;-85
2022/05/28 08:35:43;;;;;;;;;;;19.80;99.90;;;;;;4975883;28;20352;-85
2022/05/28 08:38:10;;;;;;;;;;;19.90;99.90;;;;;;4975565;28;19911;-84
2022/05/28 08:40:59;;;;;;;;;;;20.00;99.90;;;;;;4975492;28;19968;-85
2022/05/28 08:43:29;;;;;;;;;;;20.00;99.90;;;;;;4967736;28;19925;-84
2022/05/28 08:45:55;;;;;;;;;;;20.20;99.90;;;;;;4975573;28;19910;-84
2022/05/28 08:48:26;;;;;;;;;;;20.20;99.90;;;;;;4975383;28;20413;-84
2022/05/28 08:50:57;;;;;;;;;;;20.30;99.90;;;;;;4975388;28;19910;-84
2022/05/28 08:53:29;;;;;;;;;;;20.40;99.90;;;;;;4973830;28;19917;-83
2022/05/28 08:55:55;;;;;;;;;;;20.50;99.90;;;;;;4973845;28;19918;-84
2022/05/28 08:58:23;;;;;;;;;;;20.50;99.90;;;;;;4975316;28;19910;-84
2022/05/28 09:00:52;;;;;;;;;;;20.60;99.90;;;;;;4975556;28;19910;-84
2022/05/28 09:03:20;;;;;;;;;;;20.70;99.90;;;;;;4975350;28;19917;-84
2022/05/28 09:05:45;;;;;;;;;;;20.80;99.30;;;;;;4975209;28;20278;-84
2022/05/28 09:08:11;;;;;;;;;;;21.00;98.00;;;;;;4975196;28;19914;-84
2022/05/28 09:10:43;;;;;;;;;;;21.00;97.40;;;;;;4975270;28;19911;-84
2022/05/28 09:13:14;;;;;;;;;;;21.20;97.10;;;;;;4975099;28;19911;-84
2022/05/28 09:15:41;;;;;;;;;;;21.20;97.00;;;;;;4973607;28;19918;-84
2022/05/28 09:18:09;;;;;;;;;;;21.30;97.40;;;;;;4974860;28;19942;-84
2022/05/28 09:20:39;;;;;;;;;;;21.30;96.30;;;;;;4974982;28;20374;-84
2022/05/28 09:23:05;;;;;;;;;;;21.40;95.90;;;;;;4975070;28;20306;-84
2022/05/28 09:25:37;;;;;;;;;;;21.40;96.00;;;;;;4974973;28;19914;-84
2022/05/28 09:28:02;;;;;;;;;;;21.50;95.60;;;;;;4975072;28;19994;-84
2022/05/28 09:30:49;;;;;;;;;;;21.60;95.50;;;;;;4974705;28;19952;-84
2022/05/28 09:33:33;;;;;;;;;;;21.70;95.40;;;;;;4976016;28;19910;-85
2022/05/28 09:36:02;;;;;;;;;;;21.70;95.20;;;;;;4981375;28;19918;-84
2022/05/28 09:38:46;;;;;;;;;;;21.70;95.90;;;;;;4981035;28;19910;-84
2022/05/28 09:41:19;;;;;;;;;;;21.80;96.10;;;;;;4981242;28;19926;-84
2022/05/28 09:44:03;;;;;;;;;;;21.90;96.00;;;;;;4981280;28;19914;-84
2022/05/28 09:46:38;;;;;;;;;;;21.90;95.90;;;;;;4980559;28;20475;-84
2022/05/28 09:49:10;;;;;;;;;;;22.00;95.80;;;;;;4981280;28;20369;-84
2022/05/28 09:51:36;;;;;;;;;;;22.00;95.70;;;;;;4981345;28;19914;-84
2022/05/28 09:54:18;;;;;;;;;;;22.00;95.20;;;;;;4981029;28;19922;-84
2022/05/28 09:56:46;;;;;;;;;;;22.00;94.00;;;;;;4981167;28;19917;-85
2022/05/28 09:59:27;;;;;;;;;;;22.10;92.90;;;;;;4980993;28;19965;-84
2022/05/28 10:01:55;;;;;;;;;;;22.20;91.30;;;;;;4981138;28;20381;-84
2022/05/28 10:04:30;;;;;;;;;;;22.20;90.50;;;;;;4963733;28;19927;-84
2022/05/28 10:07:03;;;;;;;;;;;22.20;91.10;;;;;;4981096;28;20379;-84
2022/05/28 10:09:30;;;;;;;;;;;22.30;85.70;;;;;;4963613;28;19965;-85
2022/05/28 10:11:56;;;;;;;;;;;22.40;86.40;;;;;;4963515;28;19925;-84
2022/05/28 10:14:22;;;;;;;;;;;22.40;87.20;;;;;;4980881;28;20339;-84
2022/05/28 10:16:49;;;;;;;;;;;22.40;87.00;;;;;;4980696;28;19911;-85
2022/05/28 10:19:35;;;;;;;;;;;22.40;86.80;;;;;;4981285;28;20278;-85
2022/05/28 10:22:02;;;;;;;;;;;22.60;86.20;;;;;;4980464;28;19917;-84
2022/05/28 10:24:29;;;;;;;;;;;22.70;85.10;;;;;;4981121;28;20338;-84
2022/05/28 10:26:56;;;;;;;;;;;22.80;85.60;;;;;;4980994;28;20462;-85
2022/05/28 10:29:24;;;;;;;;;;;23.00;85.60;;;;;;4980794;28;20298;-85
2022/05/28 10:31:50;;;;;;;;;;;23.00;86.20;;;;;;4980865;28;20017;-84
2022/05/28 10:34:33;;;;;;;;;;;23.10;85.30;;;;;;4980729;28;19918;-84
2022/05/28 10:37:16;;;;;;;;;;;23.20;85.40;;;;;;4980587;28;19920;-85
2022/05/28 10:39:43;;;;;;;;;;;23.30;84.80;;;;;;4980730;28;19914;-84
2022/05/28 10:42:10;;;;;;;;;;;23.40;83.30;;;;;;4980820;28;19968;-84
2022/05/28 10:44:36;;;;;;;;;;;23.40;82.30;;;;;;4980375;28;19945;-84
2022/05/28 10:47:07;;;;;;;;;;;23.50;81.50;;;;;;4977643;28;19910;-85
2022/05/28 10:49:35;;;;;;;;;;;23.60;82.60;;;;;;4977826;28;19910;-85
2022/05/28 10:52:18;;;;;;;;;;;23.80;83.30;;;;;;4977529;28;19964;-85
2022/05/28 10:55:04;;;;;;;;;;;23.90;81.90;;;;;;4977383;28;19972;-85
2022/05/28 10:57:49;;;;;;;;;;;24.00;81.10;;;;;;4977431;28;19965;-83
2022/05/28 11:00:19;;;;;;;;;;;24.10;79.90;;;;;;4977191;28;19910;-85
2022/05/28 11:03:03;;;;;;;;;;;24.30;80.40;;;;;;4981065;28;20005;-85
2022/05/28 11:05:36;;;;;;;;;;;24.20;80.40;;;;;;4977831;28;19964;-84
2022/05/28 11:08:21;;;;;;;;;;;24.30;82.20;;;;;;4977253;28;19911;-84
2022/05/28 11:10:46;;;;;;;;;;;24.40;81.50;;;;;;4977432;28;20063;-84
2022/05/28 11:13:15;;;;;;;;;;;24.40;83.50;;;;;;4977034;28;20366;-85
2022/05/28 11:15:52;;;;;;;;;;;24.50;83.50;;;;;;4976991;28;19925;-86
2022/05/28 11:18:37;;;;;;;;;;;24.50;84.20;;;;;;4975673;28;19914;-84
2022/05/28 11:21:09;;;;;;;;;;;24.60;84.00;;;;;;4977484;28;19918;-86
2022/05/28 11:23:41;;;;;;;;;;;24.80;82.40;;;;;;4977096;28;19945;-85
2022/05/28 11:26:15;;;;;;;;;;;24.80;81.90;;;;;;4977014;28;19910;-87
2022/05/28 11:29:04;;;;;;;;;;;24.80;82.20;;;;;;4977006;28;20427;-86
2022/05/28 11:31:33;;;;;;;;;;;24.90;80.00;;;;;;4968693;28;19914;-85
2022/05/28 11:34:06;;;;;;;;;;;25.10;80.70;;;;;;4976697;28;19914;-86
2022/05/28 11:36:40;;;;;;;;;;;25.20;80.40;;;;;;4976479;28;19924;-84
2022/05/28 11:39:15;;;;;;;;;;;25.10;79.50;;;;;;4985736;28;19913;-83
2022/05/28 11:41:46;;;;;;;;;;;25.20;79.70;;;;;;4987101;28;20114;-83
2022/05/28 11:44:17;;;;;;;;;;;25.50;80.50;;;;;;4986344;28;19913;-83
2022/05/28 11:46:46;;;;;;;;;;;25.50;80.30;;;;;;4985575;28;19906;-83
2022/05/28 11:52:16;;;;;;;;;;;25.70;79.20;;;;;;4987204;28;20106;-83
2022/05/28 11:54:43;;;;;;;;;;;25.80;79.00;;;;;;4987025;28;20217;-83
2022/05/28 11:57:23;;;;;;;;;;;25.90;78.40;;;;;;4986660;28;20052;-83
2022/05/28 11:59:49;;;;;;;;;;;26.00;77.80;;;;;;4985252;28;19933;-83
2022/05/28 12:02:21;;;;;;;;;;;26.30;77.10;;;;;;4984311;28;19910;-83
2022/05/28 12:04:47;;;;;;;;;;;26.20;77.50;;;;;;4986997;28;19906;-84
2022/05/28 12:07:15;;;;;;;;;;;26.00;79.20;;;;;;4985299;28;20213;-83
2022/05/28 12:09:46;;;;;;;;;;;26.00;75.20;;;;;;4986005;28;19949;-84
2022/05/28 12:12:17;;;;;;;;;;;26.10;75.90;;;;;;4982672;28;19907;-84
2022/05/28 12:14:47;;;;;;;;;;;26.20;75.50;;;;;;4985809;28;20037;-83
2022/05/28 12:17:18;;;;;;;;;;;26.40;73.90;;;;;;4985965;28;19981;-83
2022/05/28 12:19:55;;;;;;;;;;;26.40;74.50;;;;;;4983523;28;19941;-84
2022/05/28 12:22:26;;;;;;;;;;;26.50;74.50;;;;;;4985402;28;19906;-83
2022/05/28 12:24:59;;;;;;;;;;;26.70;74.20;;;;;;4986420;28;19906;-83
2022/05/28 12:27:35;;;;;;;;;;;26.80;73.60;;;;;;4978875;28;19910;-83
2022/05/28 12:30:02;;;;;;;;;;;27.00;73.80;;;;;;4986300;28;19953;-83
2022/05/28 12:32:46;;;;;;;;;;;27.20;73.30;;;;;;4986418;28;19906;-83
2022/05/28 12:35:14;;;;;;;;;;;27.30;71.90;;;;;;4982664;28;20087;-84
2022/05/28 12:37:48;;;;;;;;;;;27.40;72.10;;;;;;4978782;28;19911;-85
2022/05/28 12:40:13;;;;;;;;;;;27.60;72.20;;;;;;4984536;28;19985;-85
2022/05/28 12:42:40;;;;;;;;;;;27.70;70.70;;;;;;4977003;28;19968;-85
2022/05/28 12:45:14;;;;;;;;;;;27.70;71.90;;;;;;4976950;28;19914;-84
2022/05/28 12:47:40;;;;;;;;;;;27.70;72.50;;;;;;4980703;28;19915;-85
2022/05/28 12:50:11;;;;;;;;;;;27.80;72.90;;;;;;4979182;28;19914;-83
2022/05/28 12:52:37;;;;;;;;;;;28.00;73.30;;;;;;4976884;28;19906;-83
2022/05/28 12:55:16;;;;;;;;;;;28.20;71.90;;;;;;4985517;28;19921;-83
2022/05/28 12:57:42;;;;;;;;;;;28.40;71.10;;;;;;4977674;28;19914;-83
2022/05/28 13:00:19;;;;;;;;;;;28.70;71.40;;;;;;4975340;28;19917;-84
2022/05/28 13:02:46;;;;;;;;;;;28.60;69.90;;;;;;4983157;28;20155;-88
2022/05/28 13:05:13;;;;;;;;;;;28.50;70.40;;;;;;4978860;28;19914;-84
2022/05/28 13:07:53;;;;;;;;;;;28.40;69.40;;;;;;4975130;28;19914;-83
2022/05/28 13:10:21;;;;;;;;;;;28.40;69.80;;;;;;4974995;28;20370;-83
2022/05/28 13:12:59;;;;;;;;;;;28.70;70.30;;;;;;4975004;28;19910;-83
2022/05/28 13:15:27;;;;;;;;;;;29.00;70.10;;;;;;4975006;28;19980;-83
2022/05/28 13:18:13;;;;;;;;;;;29.50;68.20;;;;;;4975075;28;19914;-83
2022/05/28 13:20:39;;;;;;;;;;;29.90;68.70;;;;;;4973797;28;19918;-83
2022/05/28 13:23:09;;;;;;;;;;;30.20;68.40;;;;;;4975005;28;19910;-83
2022/05/28 13:25:35;;;;;;;;;;;30.50;66.70;;;;;;4975257;28;20378;-83
2022/05/28 13:28:19;;;;;;;;;;;30.80;66.80;;;;;;4974857;28;19917;-84
2022/05/28 13:30:57;;;;;;;;;;;31.30;65.50;;;;;;4975201;28;19910;-84
2022/05/28 13:33:23;;;;;;;;;;;32.30;65.80;;;;;;4974835;28;20354;-84
2022/05/28 13:35:50;;;;;;;;;;;33.90;65.00;;;;;;4973427;28;19918;-83
2022/05/28 13:38:17;;;;;;;;;;;35.10;63.90;;;;;;4957776;28;19910;-84
2022/05/28 13:40:43;;;;;;;;;;;36.20;61.80;;;;;;4974904;28;19966;-83
2022/05/28 13:43:10;;;;;;;;;;;37.20;60.60;;;;;;4974942;28;20389;-84
2022/05/28 13:45:38;;;;;;;;;;;38.20;59.30;;;;;;4974990;28;19910;-84
2022/05/28 13:48:08;;;;;;;;;;;38.40;59.10;;;;;;4974973;28;19910;-83
2022/05/28 13:50:38;;;;;;;;;;;39.20;57.30;;;;;;4974779;28;19917;-83
2022/05/28 13:53:04;;;;;;;;;;;40.10;56.10;;;;;;4974549;28;19914;-84
2022/05/28 13:55:30;;;;;;;;;;;40.60;55.00;;;;;;4974579;28;19988;-84
2022/05/28 13:57:55;;;;;;;;;;;40.70;54.90;;;;;;4974648;28;20009;-84
2022/05/28 14:00:24;;;;;;;;;;;41.40;54.90;;;;;;4974634;28;19941;-83
2022/05/28 14:02:57;;;;;;;;;;;41.40;53.50;;;;;;4974645;28;19910;-84
2022/05/28 14:05:24;;;;;;;;;;;41.90;53.30;;;;;;4974787;28;19910;-85
2022/05/28 14:07:51;;;;;;;;;;;42.50;52.90;;;;;;4974538;28;19966;-84
2022/05/28 14:10:18;;;;;;;;;;;43.60;51.00;;;;;;4974712;28;20318;-84
2022/05/28 14:12:44;;;;;;;;;;;43.80;50.60;;;;;;4973902;28;20342;-84
2022/05/28 14:15:25;;;;;;;;;;;44.70;50.40;;;;;;4974441;28;19918;-84
2022/05/28 14:17:51;;;;;;;;;;;45.20;49.80;;;;;;4974587;28;19918;-84
2022/05/28 14:20:21;;;;;;;;;;;45.00;49.30;;;;;;4976511;28;20001;-83
2022/05/28 14:22:49;;;;;;;;;;;45.10;48.70;;;;;;4978144;28;19910;-84
2022/05/28 14:25:22;;;;;;;;;;;45.00;48.30;;;;;;4983614;28;20321;-84
2022/05/28 14:27:48;;;;;;;;;;;45.20;48.30;;;;;;4978100;28;19933;-84
2022/05/28 14:30:16;;;;;;;;;;;45.90;48.00;;;;;;4976558;28;19964;-84
2022/05/28 14:32:44;;;;;;;;;;;46.80;47.50;;;;;;4977670;28;20044;-86